Latest Weather Observations for Red Rocks Point

IDW60801

Issued at 4:03 pm WST Monday 25 July 2016 (issued every 30 minutes, with the page automatically refreshed every 10 minutes)

About weather observations | Map of weather stations | Latest weather observations for WA | Other Formats
Station Details ID: 011053 Name: RED ROCKS POINT Lat: -32.20 Lon: 127.53 Height: 3.1 m
Data from the previous 72 hours. | See also: Recent months at Red Rocks Point
Date/Time
WST
Temp
°C
App
Temp
°C
Dew
Point
°C
Rel
Hum
%
Delta-T
°C
Wind Press
QNH
hPa
Press
MSL
hPa
Rain since
9am
mm
Dir  Spd
km/h
Gust
km/h
Spd
kts
Gust
kts
25/04:00pm 14.0 10.7 9.4 74 2.3 W 17 26 9 14 1022.6 1022.6 0.0
25/03:30pm 14.5 11.3 9.9 74 2.4 WSW 17 28 9 15 1022.6 1022.6 0.0
25/03:00pm 14.8 11.2 9.8 72 2.6 WSW 19 28 10 15 1022.5 1022.5 0.0
25/02:30pm 15.1 10.8 9.2 68 3.0 WSW 22 30 12 16 1022.3 1022.3 0.0
25/02:00pm 15.5 11.6 9.6 68 3.0 WSW 20 30 11 16 1022.3 1022.3 0.0
25/01:30pm 15.6 11.2 8.8 64 3.5 WSW 22 32 12 17 1022.3 1022.3 0.0
25/01:00pm 15.5 11.6 9.4 67 3.1 WSW 20 32 11 17 1022.6 1022.6 0.0
25/12:30pm 15.0 11.2 8.9 67 3.1 W 19 30 10 16 1022.7 1022.7 0.0
25/12:00pm 14.8 11.0 9.0 68 2.9 WSW 19 30 10 16 1023.1 1023.1 0.0
25/11:30am 14.1 9.5 8.3 68 2.9 W 22 33 12 18 1023.4 1023.4 0.0
25/11:00am 14.1 9.1 8.1 67 3.0 WSW 24 43 13 23 1023.7 1023.7 0.0
25/10:30am 15.2 10.9 8.0 62 3.6 W 20 32 11 17 1024.0 1024.0 0.0
25/10:00am 14.5 9.6 6.8 60 3.7 W 22 33 12 18 1024.2 1024.2 0.0
25/09:30am 13.7 9.2 6.8 63 3.3 WNW 20 32 11 17 1024.3 1024.3 0.0
25/09:00am 12.3 7.8 6.8 69 2.6 WNW 20 33 11 18 1024.2 1024.2 0.2
25/08:30am 10.4 6.3 6.4 76 1.9 NW 17 28 9 15 1023.9 1023.9 0.2
25/08:00am 8.7 4.6 6.2 84 1.1 NW 17 24 9 13 1024.1 1024.1 0.2
25/07:30am 7.1 2.9 5.6 90 0.7 NW 17 24 9 13 1024.0 1024.0 0.2
25/07:00am 5.8 2.2 4.8 93 0.4 NW 13 19 7 10 1023.9 1023.9 0.2
25/06:30am 5.1 1.3 4.1 93 0.4 NW 13 15 7 8 1023.6 1023.6 0.0
25/06:00am 5.4 2.4 4.2 92 0.5 WNW 9 15 5 8 1023.5 1023.5 0.0
25/05:30am 5.9 2.6 4.7 92 0.5 NW 11 17 6 9 1023.1 1023.1 0.0
25/05:00am 6.0 2.4 4.8 92 0.5 NW 13 19 7 10 1022.9 1022.9 0.0
25/04:30am 6.2 2.6 5.0 92 0.5 NW 13 19 7 10 1023.0 1023.0 0.0
25/04:00am 6.4 3.2 5.0 91 0.6 NW 11 15 6 8 1023.1 1023.1 0.0
25/03:30am 6.8 3.3 5.4 91 0.6 NW 13 17 7 9 1023.1 1023.1 0.0
25/03:00am 7.1 3.6 5.6 90 0.7 NW 13 20 7 11 1023.2 1023.2 0.0
25/02:30am 7.1 3.7 5.7 91 0.6 NW 13 15 7 8 1023.2 1023.2 0.0
25/02:00am 7.5 4.1 5.8 89 0.8 NW 13 15 7 8 1023.3 1023.3 0.0
25/01:30am 8.4 5.5 6.5 88 0.9 NW 11 17 6 9 1023.3 1023.3 0.0
25/01:00am 8.9 5.8 7.2 89 0.8 NW 13 19 7 10 1023.5 1023.5 0.0
25/12:30am 8.8 5.7 7.3 90 0.7 NW 13 17 7 9 1023.6 1023.6 0.0
25/12:00am 8.8 5.8 7.6 92 0.6 NW 13 17 7 9 1023.8 1023.8 0.0
 
Date/Time
WST
Temp
°C
App
Temp
°C
Dew
Point
°C
Rel
Hum
%
Delta-T
°C
Wind Press
QNH
hPa
Press
MSL
hPa
Rain since
9am
mm
Dir  Spd
km/h
Gust
km/h
Spd
kts
Gust
kts
24/11:30pm 8.4 5.3 7.3 93 0.5 NW 13 19 7 10 1023.9 1023.9 0.0
24/11:00pm 7.9 4.7 6.8 93 0.5 NW 13 15 7 8 1024.2 1024.2 0.0
24/10:30pm 8.1 5.3 7.0 93 0.5 NW 11 15 6 8 1024.2 1024.2 0.0
24/10:00pm 8.2 5.4 7.1 93 0.5 NW 11 17 6 9 1024.3 1024.3 0.0
24/09:30pm 8.8 6.2 7.7 93 0.5 NW 11 15 6 8 1024.2 1024.2 0.0
24/09:00pm 9.1 6.6 8.0 93 0.5 NW 11 13 6 7 1024.3 1024.3 0.0
24/08:30pm 9.6 7.6 8.5 93 0.5 NW 9 15 5 8 1024.5 1024.5 0.0
24/08:00pm 9.4 7.3 8.2 92 0.6 NW 9 13 5 7 1024.4 1024.4 0.0
24/07:30pm 9.8 7.4 8.6 92 0.6 NW 11 15 6 8 1024.3 1024.3 0.0
24/07:00pm 10.5 7.8 8.9 90 0.8 WNW 13 20 7 11 1024.2 1024.2 0.0
24/06:30pm 10.7 7.8 8.3 85 1.2 WNW 13 20 7 11 1024.1 1024.1 0.0
24/06:00pm 10.3 8.0 7.4 82 1.4 WNW 9 13 5 7 1023.7 1023.7 0.0
24/05:30pm 11.1 8.4 7.4 78 1.8 WNW 11 17 6 9 1023.5 1023.5 0.0
24/05:00pm 11.3 8.1 7.0 75 2.0 W 13 19 7 10 1023.3 1023.3 0.0
24/04:30pm 11.6 8.2 7.7 77 1.9 WSW 15 24 8 13 1023.0 1023.0 0.0
24/04:00pm 12.9 9.7 8.4 74 2.2 SW 15 22 8 12 1023.0 1023.0 0.0
24/03:30pm 13.2 9.2 8.1 71 2.5 SW 19 35 10 19 1022.7 1022.7 0.0
24/03:00pm 13.6 9.2 7.4 66 3.0 WSW 20 28 11 15 1022.6 1022.6 0.0
24/02:30pm 14.0 10.3 8.0 67 3.0 WSW 17 24 9 13 1022.4 1022.4 0.0
24/02:00pm 14.1 9.4 7.6 65 3.2 WSW 22 33 12 18 1022.3 1022.3 0.0
24/01:30pm 14.1 9.8 7.9 66 3.1 SW 20 30 11 16 1022.3 1022.3 0.0
24/01:00pm 13.9 9.7 8.1 68 2.9 WSW 20 30 11 16 1022.3 1022.3 0.0
24/12:30pm 14.4 9.6 7.5 63 3.4 WSW 22 32 12 17 1022.2 1022.2 0.0
24/12:00pm 15.3 10.9 7.6 60 3.8 WSW 20 30 11 16 1022.5 1022.5 0.0
24/11:30am 13.9 9.2 7.7 66 3.1 SW 22 33 12 18 1022.7 1022.7 0.0
24/11:00am 14.7 9.5 7.3 61 3.6 SW 24 35 13 19 1022.9 1022.9 0.0
24/10:30am 14.1 9.0 7.6 65 3.2 WSW 24 33 13 18 1022.9 1022.9 0.0
24/10:00am 12.7 6.9 7.8 72 2.4 WSW 28 48 15 26 1023.0 1023.0 0.0
24/09:53am 13.1 7.2 7.5 69 2.7 SW 28 48 15 26 1022.9 1022.9 0.0
24/09:30am 14.3 9.0 6.9 61 3.6 SW 24 35 13 19 1022.6 1022.6 0.0
24/09:00am 13.4 8.0 6.3 62 3.4 SW 24 41 13 22 1022.2 1022.2 1.0
24/08:30am 12.2 6.6 7.3 72 2.4 SW 26 43 14 23 1021.8 1021.8 1.0
24/08:18am 12.3 6.3 7.0 70 2.5 SW 28 46 15 25 1021.7 1021.7 1.0
24/08:00am 12.5 6.7 6.1 65 3.0 SW 26 35 14 19 1021.4 1021.4 1.0
24/07:30am 10.3 6.6 7.9 85 1.2 W 17 32 9 17 1021.0 1021.0 1.0
24/07:00am 8.3 5.0 6.6 89 0.8 W 13 19 7 10 1020.6 1020.6 1.0
24/06:30am 8.5 4.7 6.0 84 1.1 NW 15 24 8 13 1020.2 1020.2 1.0
24/06:00am 8.3 4.8 5.6 83 1.2 WNW 13 17 7 9 1019.8 1019.8 1.0
24/05:30am 10.5 5.0 5.7 72 2.2 WSW 24 37 13 20 1019.3 1019.3 1.0
24/05:01am 10.0 5.7 6.9 81 1.5 W 19 52 10 28 1019.1 1019.1 1.0
24/05:00am 10.0 6.0 6.7 80 1.5 W 17 39 9 21 1019.2 1019.2 1.0
24/04:36am 11.1 5.0 6.8 75 2.0 SW 28 46 15 25 1018.7 1018.7 1.0
24/04:30am 11.4 4.7 5.5 67 2.7 WSW 30 46 16 25 1018.6 1018.6 1.0
24/04:05am 11.2 3.4 5.1 66 2.8 SW 35 56 19 30 1018.3 1018.3 1.0
24/04:00am 11.1 3.7 5.2 67 2.7 SW 33 48 18 26 1018.3 1018.3 1.0
24/03:32am 11.0 4.2 6.9 76 1.9 SW 32 48 17 26 1018.2 1018.2 1.0
24/03:30am 11.2 4.5 7.3 77 1.9 SW 32 48 17 26 1018.2 1018.2 1.0
24/03:15am 10.8 4.1 5.8 71 2.3 WSW 30 50 16 27 1018.1 1018.1 1.0
24/03:00am 10.1 4.0 6.6 79 1.6 WSW 28 41 15 22 1018.0 1018.0 1.0
24/02:46am 9.5 4.1 7.8 89 0.8 WSW 26 54 14 29 1018.1 1018.1 1.0
24/02:30am 8.6 5.0 6.9 89 0.8 WNW 15 32 8 17 1017.9 1017.9 0.8
24/02:00am 8.8 5.3 7.4 91 0.7 W 15 44 8 24 1017.8 1017.8 0.8
24/01:30am 9.0 4.6 7.6 91 0.7 WNW 20 33 11 18 1017.6 1017.6 0.8
24/01:00am 9.0 4.8 7.3 89 0.8 WNW 19 30 10 16 1017.5 1017.5 0.8
24/12:30am 9.0 5.1 7.3 89 0.8 WNW 17 26 9 14 1017.3 1017.3 0.8
24/12:00am 9.6 4.4 7.2 85 1.1 W 24 35 13 19 1017.3 1017.3 0.8
 
Date/Time
WST
Temp
°C
App
Temp
°C
Dew
Point
°C
Rel
Hum
%
Delta-T
°C
Wind Press
QNH
hPa
Press
MSL
hPa
Rain since
9am
mm
Dir  Spd
km/h
Gust
km/h
Spd
kts
Gust
kts
23/11:30pm 10.2 6.0 5.8 74 2.0 WNW 17 24 9 13 1017.0 1017.0 0.0
23/11:00pm 9.7 4.9 4.9 72 2.1 WNW 19 28 10 15 1017.0 1017.0 0.0
23/10:30pm 9.2 5.1 2.5 63 2.8 WNW 13 20 7 11 1017.1 1017.1 0.0
23/10:00pm 9.2 4.5 3.0 65 2.6 WNW 17 24 9 13 1017.2 1017.2 0.0
23/09:30pm 8.8 4.4 2.8 66 2.5 NW 15 20 8 11 1016.9 1016.9 0.0
23/09:00pm 8.8 4.1 3.0 67 2.5 NW 17 26 9 14 1017.0 1017.0 0.0
23/08:30pm 8.2 3.5 2.9 69 2.2 NNW 17 26 9 14 1017.0 1017.0 0.0
23/08:00pm 7.2 3.1 2.3 71 2.0 NNW 13 17 7 9 1017.4 1017.4 0.0
23/07:30pm 7.4 3.7 2.3 70 2.1 NNW 11 15 6 8 1017.7 1017.7 0.0
23/07:00pm 7.2 3.1 2.1 70 2.1 NNW 13 15 7 8 1017.9 1017.9 0.0
23/06:30pm 7.1 4.1 2.0 70 2.1 NNW 7 11 4 6 1018.0 1018.0 0.0
23/06:00pm 8.4 5.5 2.4 66 2.5 NW 7 9 4 5 1017.7 1017.7 0.0
23/05:30pm 10.1 6.4 2.5 59 3.2 WNW 11 19 6 10 1017.3 1017.3 0.0
23/05:00pm 11.3 7.3 2.6 55 3.7 WNW 13 24 7 13 1017.2 1017.2 0.0
23/04:30pm 11.9 7.2 3.4 56 3.8 WNW 17 32 9 17 1017.1 1017.1 0.0
23/04:00pm 12.4 7.7 3.4 54 4.0 WNW 17 30 9 16 1016.9 1016.9 0.0
23/03:30pm 12.6 8.3 3.0 52 4.2 WNW 15 26 8 14 1017.2 1017.2 0.0
23/03:00pm 12.8 8.1 2.9 51 4.4 WNW 17 28 9 15 1017.5 1017.5 0.0
23/02:30pm 13.3 8.1 2.5 48 4.7 W 19 30 10 16 1017.5 1017.5 0.0
23/02:00pm 13.5 8.1 2.7 48 4.8 W 20 33 11 18 1017.4 1017.4 0.0
23/01:30pm 13.6 8.5 3.1 49 4.7 W 19 32 10 17 1017.6 1017.6 0.0
23/01:00pm 14.9 9.7 3.4 46 5.2 WNW 20 28 11 15 1017.8 1017.8 0.0
23/12:30pm 15.5 10.3 3.3 44 5.5 NW 20 32 11 17 1018.2 1018.2 0.0
23/12:00pm 14.1 9.0 3.3 48 4.8 WNW 19 28 10 15 1018.6 1018.6 0.0
23/11:30am 14.2 9.2 3.4 48 4.9 NW 19 26 10 14 1019.0 1019.0 0.0
23/11:00am 15.0 10.8 5.8 54 4.4 WNW 17 28 9 15 1019.5 1019.5 0.0
23/10:30am 13.2 8.9 5.4 59 3.6 WNW 17 26 9 14 1020.1 1020.1 0.0
23/10:00am 12.5 7.9 5.7 63 3.2 WNW 19 28 10 15 1020.8 1020.8 0.0
23/09:30am 10.4 6.6 5.6 72 2.2 WNW 15 24 8 13 1021.2 1021.2 0.0
23/09:00am 9.5 6.1 6.0 79 1.6 WNW 13 20 7 11 1021.0 1021.0 1.2
23/08:30am 7.9 4.1 5.9 87 0.9 NW 15 20 8 11 1021.2 1021.2 1.2
23/08:00am 6.7 2.8 5.2 90 0.7 NW 15 22 8 12 1021.2 1021.2 1.2
23/07:30am 6.7 3.2 5.5 92 0.5 NW 13 20 7 11 1021.1 1021.1 1.2
23/07:00am 6.3 2.7 5.1 92 0.5 NW 13 19 7 10 1020.8 1020.8 1.2
23/06:30am 6.8 3.4 5.7 93 0.5 NW 13 17 7 9 1020.5 1020.5 1.2
23/06:00am 6.6 2.4 5.7 94 0.4 WNW 17 24 9 13 1020.3 1020.3 1.2
23/05:30am 6.3 2.4 5.4 94 0.4 NW 15 20 8 11 1020.0 1020.0 1.2
23/05:00am 6.0 1.7 5.1 94 0.4 NW 17 20 9 11 1019.7 1019.7 1.2
23/04:30am 6.2 2.3 5.3 94 0.4 NW 15 20 8 11 1019.7 1019.7 1.2
23/04:00am 6.3 2.4 5.4 94 0.4 NW 15 20 8 11 1019.6 1019.6 1.2
23/03:30am 6.4 2.2 5.5 94 0.4 NW 17 22 9 12 1019.6 1019.6 1.2
23/03:00am 6.4 2.5 5.5 94 0.4 WNW 15 20 8 11 1019.6 1019.6 1.0
23/02:30am 6.2 2.3 5.3 94 0.4 NW 15 20 8 11 1019.8 1019.8 1.0
23/02:00am 6.4 2.2 5.5 94 0.4 NW 17 22 9 12 1019.7 1019.7 1.0
23/01:30am 6.5 2.6 5.5 93 0.4 NW 15 20 8 11 1019.9 1019.9 1.0
23/01:00am 7.0 3.2 5.8 92 0.5 NW 15 20 8 11 1020.0 1020.0 1.0
23/12:30am 7.5 3.8 6.3 92 0.5 NW 15 20 8 11 1020.1 1020.1 1.0
23/12:00am 7.8 4.5 6.4 91 0.6 NW 13 19 7 10 1020.3 1020.3 1.0
 
Date/Time
WST
Temp
°C
App
Temp
°C
Dew
Point
°C
Rel
Hum
%
Delta-T
°C
Wind Press
QNH
hPa
Press
MSL
hPa
Rain since
9am
mm
Dir  Spd
km/h
Gust
km/h
Spd
kts
Gust
kts
22/11:30pm 8.2 4.6 6.8 91 0.6 NW 15 19 8 10 1020.5 1020.5 1.0
22/11:00pm 8.3 5.1 6.9 91 0.6 NW 13 17 7 9 1020.5 1020.5 1.0
22/10:30pm 8.7 5.2 7.0 89 0.8 NW 15 20 8 11 1020.5 1020.5 1.0
22/10:00pm 8.8 5.7 7.4 91 0.7 NW 13 20 7 11 1020.3 1020.3 1.0
22/09:30pm 9.6 5.9 7.9 89 0.8 W 17 26 9 14 1020.5 1020.5 1.0
22/09:00pm 8.9 5.4 7.4 90 0.7 NW 15 20 8 11 1020.3 1020.3 1.0
22/08:30pm 10.1 6.9 8.4 89 0.8 WSW 15 20 8 11 1020.2 1020.2 1.0
22/08:00pm 9.4 5.6 7.5 88 0.9 WNW 17 24 9 13 1020.3 1020.3 0.8
22/07:30pm 10.3 4.6 6.8 79 1.6 WSW 26 50 14 27 1019.7 1019.7 0.2
22/07:22pm 11.1 4.6 6.6 74 2.1 SW 30 50 16 27 1019.8 1019.8 0.2
22/07:00pm 9.6 6.0 6.7 82 1.3 NW 15 26 8 14 1019.5 1019.5 0.0
22/06:30pm 9.8 7.0 6.9 82 1.4 W 11 17 6 9 1019.3 1019.3 0.0
22/06:00pm 10.2 6.6 6.9 80 1.6 WNW 15 22 8 12 1018.8 1018.8 0.0
22/05:30pm 10.5 6.4 6.3 75 2.0 WNW 17 24 9 13 1018.4 1018.4 0.0
22/05:00pm 11.5 5.5 7.2 75 2.1 WSW 28 43 15 23 1018.1 1018.1 0.0
22/04:31pm 11.9 5.9 7.2 73 2.3 SW 28 46 15 25 1017.5 1017.5 0.0
22/04:30pm 11.9 5.6 7.2 73 2.3 WSW 30 46 16 25 1017.5 1017.5 0.0
22/04:23pm 11.9 5.8 6.6 70 2.5 WSW 28 46 15 25 1017.6 1017.6 0.0

Other Formats:

Comma delimited format used in spreadsheet applications
http://www.bom.gov.au/fwo/IDW60801/IDW60801.94644.axf

JavaScript Object Notation format (JSON) in row-major order
http://www.bom.gov.au/fwo/IDW60801/IDW60801.94644.json